createdAt,value
2022-12-13T00:00:19.319Z,10.75
2022-12-13T00:01:17.439Z,9.73
2022-12-13T00:02:14.097Z,7.43
2022-12-13T00:03:10.800Z,7.43
2022-12-13T00:04:08.530Z,7.43
2022-12-13T00:05:05.591Z,5.65
2022-12-13T00:06:05.476Z,7.22
2022-12-13T00:07:02.254Z,6.15
2022-12-13T00:08:00.062Z,12.45
2022-12-13T00:08:57.329Z,6.85
2022-12-13T00:09:53.955Z,9.77
2022-12-13T00:11:00.255Z,10.00
2022-12-13T00:11:56.985Z,10.70
2022-12-13T00:12:53.620Z,12.68
2022-12-13T00:13:50.277Z,16.25
2022-12-13T00:14:46.862Z,11.65
2022-12-13T00:15:43.502Z,11.77
2022-12-13T00:16:40.736Z,13.50
2022-12-13T00:17:37.709Z,12.80
2022-12-13T00:18:34.983Z,12.07
2022-12-13T00:19:31.565Z,10.98
2022-12-13T00:20:28.171Z,14.38
2022-12-13T00:21:30.288Z,10.45
2022-12-13T00:22:26.940Z,11.50
2022-12-13T00:23:24.344Z,12.45
2022-12-13T00:24:21.058Z,11.85
2022-12-13T00:25:19.902Z,11.75
2022-12-13T00:26:19.578Z,11.05
2022-12-13T00:27:16.127Z,10.30
2022-12-13T00:28:12.811Z,10.57
2022-12-13T00:29:11.261Z,8.30
2022-12-13T00:30:08.413Z,8.13
2022-12-13T00:31:43.156Z,10.98
2022-12-13T00:32:21.799Z,14.05
2022-12-13T00:33:18.497Z,11.85
2022-12-13T00:34:15.154Z,15.10
2022-12-13T00:35:11.836Z,13.30
2022-12-13T00:36:08.900Z,13.07
2022-12-13T00:37:05.490Z,14.23
2022-12-13T00:38:02.123Z,11.07
2022-12-13T00:39:01.744Z,12.88
2022-12-13T00:39:58.392Z,11.45
2022-12-13T00:40:54.955Z,10.75
2022-12-13T00:41:51.765Z,15.43
2022-12-13T00:42:49.146Z,12.88
2022-12-13T00:43:46.329Z,10.45
2022-12-13T00:44:42.948Z,11.30
2022-12-13T00:45:39.985Z,12.40
2022-12-13T00:46:36.639Z,16.05
2022-12-13T00:47:33.341Z,12.90
2022-12-13T00:48:30.200Z,11.85
2022-12-13T00:49:26.798Z,13.00
2022-12-13T00:50:23.424Z,15.15
2022-12-13T00:51:21.027Z,11.15
2022-12-13T00:52:17.595Z,11.30
2022-12-13T00:53:14.183Z,12.20
2022-12-13T00:54:11.323Z,12.48
2022-12-13T00:55:08.391Z,12.75
2022-12-13T00:56:09.964Z,16.40
2022-12-13T00:57:06.576Z,10.07
2022-12-13T00:58:03.229Z,13.13
2022-12-13T00:59:00.326Z,11.18
2022-12-13T00:59:57.018Z,11.02
2022-12-13T01:00:53.591Z,12.77
2022-12-13T01:01:50.257Z,10.63
2022-12-13T01:02:47.162Z,9.88
2022-12-13T01:03:44.045Z,12.38
2022-12-13T01:04:40.648Z,11.63
2022-12-13T01:06:13.289Z,12.80
2022-12-13T01:06:55.160Z,16.17
2022-12-13T01:07:51.904Z,16.08
2022-12-13T01:08:49.420Z,15.95
2022-12-13T01:09:46.020Z,10.93
2022-12-13T01:10:47.098Z,10.10
2022-12-13T01:11:44.832Z,12.20
2022-12-13T01:12:41.480Z,9.52
2022-12-13T01:13:39.243Z,12.68
2022-12-13T01:14:37.225Z,8.82
2022-12-13T01:15:33.853Z,8.80
2022-12-13T01:16:30.590Z,9.13
2022-12-13T01:17:27.571Z,8.95
2022-12-13T01:18:24.314Z,6.55
2022-12-13T01:19:22.415Z,7.63
2022-12-13T01:20:19.054Z,7.38
2022-12-13T01:21:18.286Z,7.68
2022-12-13T01:22:15.019Z,10.25
2022-12-13T01:23:11.939Z,7.80
2022-12-13T01:24:08.659Z,8.38
2022-12-13T01:25:05.529Z,7.85
2022-12-13T01:26:04.533Z,12.27
2022-12-13T01:27:01.216Z,7.53
2022-12-13T01:27:57.775Z,9.65
2022-12-13T01:28:54.372Z,7.85
2022-12-13T01:29:51.021Z,10.48
2022-12-13T01:30:56.698Z,8.02
2022-12-13T01:31:54.294Z,11.13
2022-12-13T01:32:51.027Z,10.38
2022-12-13T01:33:48.601Z,10.65
2022-12-13T01:34:45.154Z,7.85
2022-12-13T01:35:41.837Z,14.95
2022-12-13T01:36:43.384Z,9.75
2022-12-13T01:37:39.976Z,11.97
2022-12-13T01:38:37.869Z,11.05
2022-12-13T01:39:38.228Z,7.35
2022-12-13T01:40:38.786Z,10.93
2022-12-13T01:41:36.031Z,9.13
2022-12-13T01:42:32.682Z,9.90
2022-12-13T01:43:49.272Z,12.70
2022-12-13T01:45:04.067Z,10.38
2022-12-13T01:46:00.768Z,9.75
2022-12-13T01:46:57.487Z,11.23
2022-12-13T01:48:02.476Z,13.00
2022-12-13T01:49:04.842Z,9.77
2022-12-13T01:51:03.877Z,9.93
2022-12-13T01:52:05.287Z,10.52
2022-12-13T01:53:05.364Z,11.02
2022-12-13T01:54:05.140Z,9.10
2022-12-13T01:55:05.118Z,10.40
2022-12-13T01:56:06.965Z,10.98
2022-12-13T01:57:06.924Z,7.65
2022-12-13T01:58:05.899Z,12.05
2022-12-13T01:59:02.984Z,11.68
2022-12-13T01:59:59.955Z,13.48
2022-12-13T02:00:59.184Z,10.30
2022-12-13T02:02:00.939Z,13.07
2022-12-13T02:02:59.927Z,11.93
2022-12-13T02:03:56.577Z,9.95
2022-12-13T02:04:58.479Z,10.07
2022-12-13T02:06:19.678Z,13.40
2022-12-13T02:07:23.185Z,11.18
2022-12-13T02:08:21.349Z,16.30
2022-12-13T02:09:18.820Z,12.88
2022-12-13T02:10:15.540Z,12.27
2022-12-13T02:11:13.020Z,16.65
2022-12-13T02:12:11.379Z,12.82
2022-12-13T02:13:08.003Z,14.20
2022-12-13T02:14:05.636Z,14.13
2022-12-13T02:15:07.985Z,15.80
2022-12-13T02:16:28.226Z,15.95
2022-12-13T02:17:44.722Z,13.52
2022-12-13T02:19:10.328Z,16.83
2022-12-13T02:20:25.643Z,15.82
2022-12-13T02:21:48.757Z,14.32
2022-12-13T02:23:11.689Z,15.77
2022-12-13T02:24:32.699Z,11.73
2022-12-13T02:25:35.082Z,8.75
2022-12-13T02:28:30.851Z,9.20
2022-12-13T02:30:00.904Z,13.27
2022-12-13T02:31:07.962Z,13.85
2022-12-13T02:32:28.869Z,12.52
2022-12-13T02:33:50.439Z,14.70
2022-12-13T02:34:50.088Z,13.50
2022-12-13T02:36:12.723Z,10.93
2022-12-13T02:37:25.590Z,10.32
2022-12-13T02:38:55.498Z,11.35
2022-12-13T02:40:05.370Z,10.32
2022-12-13T02:41:24.256Z,15.93
2022-12-13T02:42:49.508Z,13.27
2022-12-13T02:44:22.363Z,12.73
2022-12-13T02:45:36.817Z,15.50
2022-12-13T02:46:39.785Z,11.75
2022-12-13T02:47:41.584Z,9.63
2022-12-13T02:48:40.857Z,11.52
2022-12-13T02:49:42.429Z,14.38
2022-12-13T02:50:40.497Z,12.82
2022-12-13T02:51:39.307Z,13.50
2022-12-13T02:52:36.772Z,15.15
2022-12-13T02:53:34.859Z,13.93
2022-12-13T02:54:31.561Z,12.15
2022-12-13T02:55:28.959Z,13.13
2022-12-13T02:56:25.531Z,11.35
2022-12-13T02:57:30.008Z,15.93
2022-12-13T02:58:31.116Z,10.98
2022-12-13T02:59:35.805Z,11.02
2022-12-13T03:00:59.228Z,9.77
2022-12-13T03:02:14.457Z,9.38
2022-12-13T03:03:30.473Z,9.75
2022-12-13T03:04:36.419Z,8.65
2022-12-13T03:05:51.460Z,9.77
2022-12-13T03:07:00.444Z,10.30
2022-12-13T03:08:38.830Z,10.70
2022-12-13T03:09:50.472Z,11.32
2022-12-13T03:10:55.081Z,8.60
2022-12-13T03:12:32.487Z,10.68
2022-12-13T03:13:42.978Z,13.00
2022-12-13T03:14:46.827Z,13.60
2022-12-13T03:16:14.656Z,12.85
2022-12-13T03:17:21.650Z,13.27
2022-12-13T03:18:22.185Z,14.93
2022-12-13T03:19:19.491Z,9.32
2022-12-13T03:20:24.548Z,11.40
2022-12-13T03:21:21.219Z,14.85
2022-12-13T03:22:17.893Z,12.13
2022-12-13T03:23:16.315Z,10.35
2022-12-13T03:24:13.659Z,10.38
2022-12-13T03:25:10.246Z,11.32
2022-12-13T03:26:12.910Z,10.63
2022-12-13T03:27:09.485Z,11.00
2022-12-13T03:28:06.087Z,9.52
2022-12-13T03:29:02.789Z,9.43
2022-12-13T03:30:00.218Z,11.75
2022-12-13T03:30:56.929Z,11.57
2022-12-13T03:31:54.353Z,9.88
2022-12-13T03:32:50.943Z,12.02
2022-12-13T03:33:48.232Z,13.57
2022-12-13T03:34:47.588Z,14.30
2022-12-13T03:35:46.594Z,13.80
2022-12-13T03:36:43.337Z,16.00
2022-12-13T03:37:39.953Z,10.80
2022-12-13T03:38:38.191Z,10.65
2022-12-13T03:39:35.372Z,10.02
2022-12-13T03:40:34.280Z,14.35
2022-12-13T03:41:34.053Z,16.67
2022-12-13T03:42:30.819Z,16.15
2022-12-13T03:43:28.770Z,16.58
2022-12-13T03:44:25.462Z,14.52
2022-12-13T03:45:28.301Z,11.93
2022-12-13T03:46:25.002Z,12.75
2022-12-13T03:47:21.697Z,14.07
2022-12-13T03:48:22.203Z,15.27
2022-12-13T03:49:19.887Z,11.60
2022-12-13T03:50:25.798Z,16.08
2022-12-13T03:51:24.017Z,11.43
2022-12-13T03:52:20.680Z,13.07
2022-12-13T03:53:22.869Z,13.60
2022-12-13T03:54:29.547Z,10.85
2022-12-13T03:55:26.846Z,11.02
2022-12-13T03:56:23.553Z,14.88
2022-12-13T03:57:20.187Z,18.65
2022-12-13T03:58:16.871Z,14.23
2022-12-13T03:59:13.486Z,11.70
2022-12-13T04:00:10.684Z,14.65
2022-12-13T04:01:10.216Z,12.25
2022-12-13T04:02:06.908Z,13.13
2022-12-13T04:03:03.690Z,10.35
2022-12-13T04:04:00.430Z,7.88
2022-12-13T04:04:57.069Z,9.73
2022-12-13T04:05:57.379Z,10.05
2022-12-13T04:06:53.933Z,10.73
2022-12-13T04:07:50.531Z,8.65
2022-12-13T04:08:47.239Z,9.68
2022-12-13T04:09:47.666Z,9.35
2022-12-13T04:10:44.246Z,10.15
2022-12-13T04:11:59.751Z,9.35
2022-12-13T04:13:15.055Z,10.68
2022-12-13T04:14:12.331Z,12.32
2022-12-13T04:15:19.083Z,13.57
2022-12-13T04:16:15.803Z,11.52
2022-12-13T04:17:12.371Z,12.75
2022-12-13T04:18:09.034Z,12.55
2022-12-13T04:19:05.704Z,10.85
2022-12-13T04:20:02.339Z,11.60
2022-12-13T04:20:58.956Z,9.50
2022-12-13T04:21:55.549Z,10.18
2022-12-13T04:22:52.154Z,8.73
2022-12-13T04:23:48.805Z,9.65
2022-12-13T04:24:45.391Z,11.98
2022-12-13T04:25:42.941Z,11.85
2022-12-13T04:26:40.758Z,12.38
2022-12-13T04:27:38.097Z,8.50
2022-12-13T04:28:34.727Z,12.45
2022-12-13T04:29:34.907Z,9.38
2022-12-13T04:30:32.129Z,12.35
2022-12-13T04:31:28.796Z,12.48
2022-12-13T04:32:26.871Z,12.23
2022-12-13T04:33:24.852Z,12.35
2022-12-13T04:34:21.517Z,10.38
2022-12-13T04:35:18.412Z,13.55
2022-12-13T04:36:32.165Z,13.05
2022-12-13T04:37:30.362Z,12.57
2022-12-13T04:38:27.583Z,12.32
2022-12-13T04:39:24.150Z,13.05
2022-12-13T04:40:21.921Z,13.38
2022-12-13T04:41:19.480Z,13.73
2022-12-13T04:42:16.443Z,14.40
2022-12-13T04:43:13.127Z,10.90
2022-12-13T04:44:27.892Z,14.15
2022-12-13T04:45:26.067Z,12.60
2022-12-13T04:46:22.820Z,12.57
2022-12-13T04:47:19.441Z,15.35
2022-12-13T04:48:31.314Z,14.43
2022-12-13T04:49:30.152Z,11.30
2022-12-13T04:50:26.938Z,13.85
2022-12-13T04:51:23.846Z,13.27
2022-12-13T04:52:22.329Z,13.60
2022-12-13T04:53:19.435Z,13.10
2022-12-13T04:54:24.600Z,13.48
2022-12-13T04:55:21.295Z,15.60
2022-12-13T04:56:18.161Z,12.70
2022-12-13T04:57:14.892Z,10.70
2022-12-13T04:58:11.777Z,14.02
2022-12-13T04:59:09.125Z,15.90
2022-12-13T05:00:07.102Z,12.43
2022-12-13T05:01:08.181Z,16.90
2022-12-13T05:02:06.311Z,13.88
2022-12-13T05:03:03.475Z,11.38
2022-12-13T05:04:03.329Z,13.32
2022-12-13T05:05:00.437Z,14.68
2022-12-13T05:05:57.025Z,12.93
2022-12-13T05:06:53.608Z,13.63
2022-12-13T05:07:50.254Z,11.23
2022-12-13T05:08:46.888Z,15.20
2022-12-13T05:09:43.475Z,14.00
2022-12-13T05:10:40.322Z,13.38
2022-12-13T05:11:36.926Z,13.45
2022-12-13T05:12:42.178Z,15.32
2022-12-13T05:13:39.330Z,12.80
2022-12-13T05:14:35.915Z,13.48
2022-12-13T05:15:33.655Z,9.77
2022-12-13T05:16:30.361Z,9.80
2022-12-13T05:17:27.013Z,9.68
2022-12-13T05:18:23.790Z,9.48
2022-12-13T05:19:20.447Z,12.05
2022-12-13T05:20:17.073Z,53.53
2022-12-13T05:21:13.684Z,56.58
2022-12-13T05:22:19.845Z,17.17
2022-12-13T05:23:23.114Z,12.40
2022-12-13T05:24:19.800Z,15.15
2022-12-13T05:25:16.707Z,26.30
2022-12-13T05:26:13.455Z,18.25
2022-12-13T05:27:24.881Z,14.88
2022-12-13T05:28:27.811Z,14.07
2022-12-13T05:29:25.449Z,12.18
2022-12-13T05:30:22.013Z,15.35
2022-12-13T05:31:23.288Z,29.90
2022-12-13T05:32:20.719Z,29.45
2022-12-13T05:33:17.360Z,19.00
2022-12-13T05:34:14.080Z,18.90
2022-12-13T05:35:10.901Z,22.10
2022-12-13T05:36:07.920Z,17.88
2022-12-13T05:37:04.582Z,15.52
2022-12-13T05:38:01.412Z,19.38
2022-12-13T05:38:58.000Z,14.70
2022-12-13T05:39:54.637Z,16.13
2022-12-13T05:40:51.229Z,14.00
2022-12-13T05:41:48.124Z,17.50
2022-12-13T05:42:44.705Z,23.05
2022-12-13T05:43:43.021Z,24.90
2022-12-13T05:44:40.225Z,15.48
2022-12-13T05:45:37.204Z,15.95
2022-12-13T05:46:39.885Z,17.90
2022-12-13T05:47:38.169Z,23.45
2022-12-13T05:48:34.802Z,20.30
2022-12-13T05:49:32.255Z,19.92
2022-12-13T05:50:29.149Z,15.32
2022-12-13T05:51:25.878Z,14.93
2022-12-13T05:52:31.335Z,16.48
2022-12-13T05:53:30.645Z,15.68
2022-12-13T05:54:27.986Z,14.48
2022-12-13T05:55:24.624Z,16.13
2022-12-13T05:56:22.614Z,14.95
2022-12-13T05:57:19.972Z,17.27
2022-12-13T05:58:16.768Z,15.93
2022-12-13T05:59:20.021Z,16.27
2022-12-13T06:00:30.006Z,13.00
2022-12-13T06:01:27.392Z,13.32
2022-12-13T06:02:24.368Z,13.55
2022-12-13T06:03:21.373Z,13.80
2022-12-13T06:04:22.540Z,13.75
2022-12-13T06:05:20.041Z,13.85
2022-12-13T06:06:18.243Z,17.50
2022-12-13T06:07:14.902Z,12.20
2022-12-13T06:08:24.268Z,13.80
2022-12-13T06:09:22.113Z,11.63
2022-12-13T06:10:21.798Z,11.77
2022-12-13T06:11:32.157Z,16.67
2022-12-13T06:12:31.693Z,11.82
2022-12-13T06:13:32.014Z,15.15
2022-12-13T06:14:29.285Z,16.73
2022-12-13T06:15:26.230Z,13.10
2022-12-13T06:16:31.612Z,13.88
2022-12-13T06:17:36.227Z,12.82
2022-12-13T06:18:35.480Z,14.77
2022-12-13T06:19:32.254Z,16.02
2022-12-13T06:20:28.892Z,15.63
2022-12-13T06:21:25.607Z,17.05
2022-12-13T06:22:22.168Z,11.23
2022-12-13T06:23:18.809Z,17.85
2022-12-13T06:24:17.119Z,15.25
2022-12-13T06:25:30.844Z,18.02
2022-12-13T06:26:28.514Z,13.00
2022-12-13T06:27:25.151Z,15.90
2022-12-13T06:28:21.787Z,28.77
2022-12-13T06:29:24.226Z,24.52
2022-12-13T06:30:22.014Z,22.48
2022-12-13T06:31:18.671Z,22.33
2022-12-13T06:32:15.427Z,18.35
2022-12-13T06:33:13.355Z,30.05
2022-12-13T06:34:14.581Z,19.52
2022-12-13T06:35:28.989Z,18.40
2022-12-13T06:36:26.694Z,20.30
2022-12-13T06:37:23.243Z,18.98
2022-12-13T06:38:31.611Z,19.52
2022-12-13T06:39:32.701Z,20.38
2022-12-13T06:40:30.765Z,27.05
2022-12-13T06:41:31.994Z,22.15
2022-12-13T06:42:28.782Z,20.03
2022-12-13T06:43:25.375Z,20.50
2022-12-13T06:44:22.186Z,23.55
2022-12-13T06:45:19.009Z,23.00
2022-12-13T06:46:16.028Z,31.20
2022-12-13T06:47:12.966Z,23.98
2022-12-13T06:48:28.970Z,26.58
2022-12-13T06:49:25.666Z,21.88
2022-12-13T06:50:29.136Z,25.10
2022-12-13T06:51:33.242Z,21.02
2022-12-13T06:52:30.105Z,19.70
2022-12-13T06:53:26.763Z,16.42
2022-12-13T06:54:23.363Z,18.33
2022-12-13T06:55:23.591Z,16.75
2022-12-13T06:56:20.831Z,18.50
2022-12-13T06:57:17.565Z,23.88
2022-12-13T06:58:14.170Z,25.48
2022-12-13T06:59:10.917Z,23.67
2022-12-13T07:00:08.409Z,25.92
2022-12-13T07:01:14.577Z,35.35
2022-12-13T07:02:15.533Z,34.55
2022-12-13T07:03:22.541Z,31.25
2022-12-13T07:04:29.741Z,33.53
2022-12-13T07:05:27.658Z,29.77
2022-12-13T07:06:25.581Z,36.03
2022-12-13T07:07:22.878Z,33.60
2022-12-13T07:08:22.380Z,34.67
2022-12-13T07:09:19.563Z,36.00
2022-12-13T07:10:22.149Z,33.53
2022-12-13T07:11:25.196Z,29.77
2022-12-13T07:12:22.241Z,36.53
2022-12-13T07:13:18.807Z,33.10
2022-12-13T07:14:15.847Z,30.70
2022-12-13T07:15:12.442Z,32.63
2022-12-13T07:16:10.384Z,26.77
2022-12-13T07:17:07.026Z,24.67
2022-12-13T07:18:04.200Z,28.25
2022-12-13T07:19:02.128Z,27.40
2022-12-13T07:19:58.918Z,31.42
2022-12-13T07:20:57.816Z,28.95
2022-12-13T07:21:54.442Z,34.35
2022-12-13T07:22:59.243Z,39.67
2022-12-13T07:23:56.179Z,35.38
2022-12-13T07:24:52.932Z,29.95
2022-12-13T07:25:55.534Z,25.23
2022-12-13T07:26:52.243Z,16.35
2022-12-13T07:27:48.887Z,12.48
2022-12-13T07:28:50.093Z,13.82
2022-12-13T07:29:49.612Z,13.10
2022-12-13T07:30:46.913Z,11.60
2022-12-13T07:31:43.626Z,14.60
2022-12-13T07:32:41.709Z,14.27
2022-12-13T07:33:38.765Z,13.32
2022-12-13T07:34:35.686Z,14.88
2022-12-13T07:35:36.976Z,13.27
2022-12-13T07:36:34.342Z,15.60
2022-12-13T07:37:31.282Z,10.55
2022-12-13T07:38:28.479Z,13.32
2022-12-13T07:39:26.341Z,10.77
2022-12-13T07:40:22.973Z,13.15
2022-12-13T07:41:23.732Z,11.07
2022-12-13T07:42:20.839Z,11.07
2022-12-13T07:43:17.847Z,10.60
2022-12-13T07:44:14.631Z,9.55
2022-12-13T07:45:11.341Z,10.98
2022-12-13T07:46:08.381Z,10.27
2022-12-13T07:47:05.090Z,11.73
2022-12-13T07:48:05.855Z,17.77
2022-12-13T07:49:03.431Z,30.42
2022-12-13T07:50:00.108Z,38.15
2022-12-13T07:51:03.997Z,27.92
2022-12-13T07:52:00.661Z,36.55
2022-12-13T07:52:57.342Z,30.55
2022-12-13T07:53:54.015Z,31.33
2022-12-13T07:54:50.743Z,28.90
2022-12-13T07:55:47.500Z,29.00
2022-12-13T07:56:44.411Z,27.77
2022-12-13T07:57:42.614Z,32.63
2022-12-13T07:58:39.496Z,34.10
2022-12-13T07:59:36.122Z,37.65
2022-12-13T08:00:33.440Z,34.92
2022-12-13T08:01:34.639Z,30.55
2022-12-13T08:02:31.704Z,34.08
2022-12-13T08:03:28.807Z,35.97
2022-12-13T08:04:25.627Z,35.30
2022-12-13T08:05:26.681Z,37.40
2022-12-13T08:06:23.836Z,39.92
2022-12-13T08:07:20.494Z,41.30
2022-12-13T08:08:20.042Z,35.78
2022-12-13T08:09:16.641Z,35.30
2022-12-13T08:10:13.273Z,39.13
2022-12-13T08:11:15.412Z,41.00
2022-12-13T08:12:12.026Z,34.30
2022-12-13T08:13:08.724Z,33.25
2022-12-13T08:14:06.344Z,32.05
2022-12-13T08:15:03.191Z,37.75
2022-12-13T08:16:26.338Z,41.08
2022-12-13T08:17:23.345Z,34.63
2022-12-13T08:18:19.957Z,39.88
2022-12-13T08:19:16.588Z,37.47
2022-12-13T08:20:13.548Z,35.20
2022-12-13T08:21:52.687Z,34.35
2022-12-13T08:22:36.344Z,39.63
2022-12-13T08:23:34.267Z,36.95
2022-12-13T08:24:31.321Z,34.58
2022-12-13T08:25:28.077Z,36.75
2022-12-13T08:26:24.972Z,38.08
2022-12-13T08:27:21.709Z,37.03
2022-12-13T08:28:18.540Z,37.70
2022-12-13T08:29:23.052Z,32.28
2022-12-13T08:30:32.151Z,33.05
2022-12-13T08:31:33.787Z,44.83
2022-12-13T08:32:30.775Z,38.50
2022-12-13T08:33:27.542Z,35.10
2022-12-13T08:34:24.143Z,37.78
2022-12-13T08:35:20.790Z,38.30
2022-12-13T08:36:18.495Z,32.25
2022-12-13T08:37:16.700Z,41.17
2022-12-13T08:38:13.848Z,42.55
2022-12-13T08:39:19.569Z,39.83
2022-12-13T08:40:16.406Z,36.97
2022-12-13T08:41:13.940Z,41.35
2022-12-13T08:42:18.798Z,40.85
2022-12-13T08:43:15.798Z,40.90
2022-12-13T08:44:12.393Z,41.13
2022-12-13T08:45:09.580Z,40.90
2022-12-13T08:46:06.761Z,40.78
2022-12-13T08:47:03.420Z,37.45
2022-12-13T08:48:01.187Z,38.03
2022-12-13T08:48:57.887Z,41.38
2022-12-13T08:50:02.354Z,38.20
2022-12-13T08:51:24.590Z,37.92
2022-12-13T08:52:23.710Z,36.38
2022-12-13T08:53:21.055Z,33.78
2022-12-13T08:54:31.711Z,30.58
2022-12-13T08:55:31.774Z,31.40
2022-12-13T08:56:30.133Z,31.88
2022-12-13T08:57:26.765Z,35.03
2022-12-13T08:58:23.451Z,34.22
2022-12-13T08:59:20.148Z,33.30
2022-12-13T09:00:19.386Z,32.70
2022-12-13T09:01:16.217Z,34.65
2022-12-13T09:02:17.276Z,36.45
2022-12-13T09:03:13.920Z,34.92
2022-12-13T09:04:10.586Z,36.70
2022-12-13T09:05:09.273Z,32.15
2022-12-13T09:06:13.814Z,28.90
2022-12-13T09:07:10.387Z,31.05
2022-12-13T09:08:23.708Z,37.22
2022-12-13T09:09:21.871Z,30.60
2022-12-13T09:10:27.512Z,30.52
2022-12-13T09:11:35.003Z,29.67
2022-12-13T09:12:35.023Z,30.23
2022-12-13T09:13:43.563Z,30.48
2022-12-13T09:14:45.393Z,33.63
2022-12-13T09:15:46.307Z,31.23
2022-12-13T09:16:50.447Z,27.90
2022-12-13T09:17:52.492Z,31.15
2022-12-13T09:18:54.720Z,27.80
2022-12-13T09:19:57.962Z,31.48
2022-12-13T09:20:55.440Z,29.65
2022-12-13T09:22:07.871Z,29.33
2022-12-13T09:23:14.314Z,26.83
2022-12-13T09:24:24.170Z,25.85
2022-12-13T09:25:24.018Z,26.45
2022-12-13T09:26:25.602Z,26.48
2022-12-13T09:27:28.232Z,26.52
2022-12-13T09:28:25.522Z,25.48
2022-12-13T09:29:22.182Z,24.00
2022-12-13T09:30:19.283Z,24.70
2022-12-13T09:31:19.426Z,24.83
2022-12-13T09:32:16.259Z,27.95
2022-12-13T09:33:17.642Z,26.83
2022-12-13T09:34:26.859Z,32.47
2022-12-13T09:35:23.607Z,32.40
2022-12-13T09:36:21.504Z,28.35
2022-12-13T09:37:22.748Z,31.85
2022-12-13T09:38:20.409Z,31.60
2022-12-13T09:39:17.199Z,33.55
2022-12-13T09:40:26.061Z,29.83
2022-12-13T09:41:42.522Z,31.02
2022-12-13T09:42:44.995Z,34.95
2022-12-13T09:45:02.185Z,36.80
2022-12-13T09:46:13.304Z,35.95
2022-12-13T09:47:26.191Z,37.58
2022-12-13T09:48:23.545Z,37.17
2022-12-13T09:49:38.469Z,36.30
2022-12-13T09:50:38.766Z,37.75
2022-12-13T09:52:44.479Z,39.95
2022-12-13T09:53:51.532Z,34.15
2022-12-13T09:54:50.136Z,39.17
2022-12-13T09:55:50.880Z,34.88
2022-12-13T09:56:51.401Z,37.90
2022-12-13T09:57:48.760Z,35.92
2022-12-13T09:58:49.279Z,40.78
2022-12-13T09:59:47.596Z,37.17
2022-12-13T10:00:47.485Z,35.03
2022-12-13T10:01:45.487Z,35.03
2022-12-13T10:02:48.380Z,36.03
2022-12-13T10:03:49.206Z,34.63
2022-12-13T10:04:45.899Z,34.50
2022-12-13T10:05:46.053Z,32.70
2022-12-13T10:06:42.788Z,35.25
2022-12-13T10:07:40.257Z,31.45
2022-12-13T10:08:50.380Z,37.15
2022-12-13T10:10:01.603Z,31.88
2022-12-13T10:10:58.377Z,42.58
2022-12-13T10:11:55.846Z,31.48
2022-12-13T10:13:08.716Z,31.38
2022-12-13T10:14:30.020Z,32.13
2022-12-13T10:15:28.580Z,31.95
2022-12-13T10:16:25.179Z,35.92
2022-12-13T10:17:25.745Z,38.08
2022-12-13T10:18:33.824Z,34.38
2022-12-13T10:19:40.541Z,34.72
2022-12-13T10:20:37.720Z,33.88
2022-12-13T10:21:42.932Z,34.35
2022-12-13T10:22:39.533Z,33.45
2022-12-13T10:23:59.811Z,32.17
2022-12-13T10:25:03.868Z,32.25
2022-12-13T10:26:03.297Z,33.40
2022-12-13T10:27:32.146Z,31.77
2022-12-13T10:28:33.466Z,30.45
2022-12-13T10:29:30.081Z,33.78
2022-12-13T10:30:29.161Z,32.10
2022-12-13T10:31:26.204Z,31.25
2022-12-13T10:32:23.093Z,29.33
2022-12-13T10:33:28.987Z,29.50
2022-12-13T10:34:29.915Z,31.83
2022-12-13T10:35:27.929Z,32.85
2022-12-13T10:36:43.789Z,34.25
2022-12-13T10:37:40.452Z,33.33
2022-12-13T10:38:45.564Z,31.45
2022-12-13T10:39:43.634Z,31.52
2022-12-13T10:40:46.744Z,32.70
2022-12-13T10:41:44.470Z,32.88
2022-12-13T10:42:41.095Z,30.83
2022-12-13T10:43:38.076Z,32.50
2022-12-13T10:44:35.488Z,33.90
2022-12-13T10:45:32.161Z,30.80
2022-12-13T10:46:31.268Z,32.03
2022-12-13T10:47:36.461Z,35.97
2022-12-13T10:48:39.910Z,34.83
2022-12-13T10:49:39.420Z,34.63
2022-12-13T10:50:37.099Z,36.45
2022-12-13T10:51:39.964Z,31.40
2022-12-13T10:52:43.162Z,31.88
2022-12-13T10:53:47.390Z,32.38
2022-12-13T10:54:48.523Z,33.80
2022-12-13T10:55:45.545Z,30.85
2022-12-13T10:56:51.018Z,32.85
2022-12-13T10:57:56.935Z,32.30
2022-12-13T10:59:16.987Z,37.33
2022-12-13T11:00:33.682Z,34.03
2022-12-13T11:01:30.521Z,42.47
2022-12-13T11:02:38.360Z,38.30
2022-12-13T11:03:35.019Z,39.50
2022-12-13T11:04:35.304Z,38.67
2022-12-13T11:05:35.619Z,42.38
2022-12-13T11:06:46.746Z,40.45
2022-12-13T11:07:43.323Z,44.83
2022-12-13T11:08:40.146Z,46.22
2022-12-13T11:09:38.936Z,42.33
2022-12-13T11:10:36.517Z,39.97
2022-12-13T11:11:34.948Z,41.83
2022-12-13T11:12:31.729Z,39.00
2022-12-13T11:13:33.516Z,40.00
2022-12-13T11:14:43.221Z,40.03
2022-12-13T11:15:40.353Z,42.05
2022-12-13T11:16:41.485Z,37.92
2022-12-13T11:17:48.116Z,39.15
2022-12-13T11:18:53.018Z,42.17
2022-12-13T11:19:54.012Z,45.20
2022-12-13T11:21:00.456Z,44.65
2022-12-13T11:21:57.319Z,39.45
2022-12-13T11:23:19.675Z,41.95
2022-12-13T11:24:38.420Z,41.83
2022-12-13T11:25:43.709Z,41.10
2022-12-13T11:26:42.932Z,43.75
2022-12-13T11:27:46.174Z,42.50
2022-12-13T11:29:09.224Z,42.30
2022-12-13T11:30:27.359Z,39.50
2022-12-13T11:31:48.851Z,34.10
2022-12-13T11:32:59.268Z,35.60
2022-12-13T11:34:09.174Z,35.50
2022-12-13T11:35:16.358Z,38.35
2022-12-13T11:36:48.578Z,41.40
2022-12-13T11:37:49.330Z,43.53
2022-12-13T11:38:58.188Z,43.03
2022-12-13T11:40:01.679Z,40.50
2022-12-13T11:41:38.633Z,37.17
2022-12-13T11:42:54.161Z,36.92
2022-12-13T11:44:14.055Z,36.95
2022-12-13T11:45:11.716Z,38.80
2022-12-13T11:46:35.136Z,33.47
2022-12-13T11:48:00.645Z,34.08
2022-12-13T11:49:03.079Z,30.10
2022-12-13T11:51:00.103Z,30.90
2022-12-13T11:52:21.897Z,39.33
2022-12-13T11:53:50.675Z,34.60
2022-12-13T11:54:57.687Z,37.78
2022-12-13T11:56:20.267Z,30.95
2022-12-13T11:57:31.658Z,34.60
2022-12-13T11:59:02.913Z,35.08
2022-12-13T12:00:35.425Z,36.00
2022-12-13T12:01:47.771Z,32.00
2022-12-13T12:02:56.815Z,34.90
2022-12-13T12:03:56.865Z,30.10
2022-12-13T12:05:00.496Z,32.38
2022-12-13T12:06:05.938Z,33.97
2022-12-13T12:07:30.683Z,31.60
2022-12-13T12:08:52.851Z,29.75
2022-12-13T12:09:56.239Z,29.27
2022-12-13T12:11:19.400Z,29.63
2022-12-13T12:12:37.248Z,25.67
2022-12-13T12:13:51.621Z,29.88
2022-12-13T12:14:52.660Z,29.77
2022-12-13T12:16:04.236Z,25.25
2022-12-13T12:17:01.130Z,29.98
2022-12-13T12:17:57.951Z,32.25
2022-12-13T12:18:54.676Z,24.55
2022-12-13T12:19:58.919Z,28.85
2022-12-13T12:21:20.638Z,30.85
2022-12-13T12:22:48.054Z,30.80
2022-12-13T12:23:52.552Z,29.58
2022-12-13T12:25:16.814Z,35.08
2022-12-13T12:26:18.556Z,31.67
2022-12-13T12:27:39.927Z,34.53
2022-12-13T12:29:12.283Z,34.47
2022-12-13T12:30:23.195Z,34.78
2022-12-13T12:31:50.923Z,35.75
2022-12-13T12:33:00.826Z,32.92
2022-12-13T12:34:00.228Z,34.40
2022-12-13T12:35:16.545Z,34.88
2022-12-13T12:36:32.019Z,37.58
2022-12-13T12:37:49.293Z,40.00
2022-12-13T12:39:14.397Z,38.15
2022-12-13T12:40:52.182Z,39.20
2022-12-13T12:42:07.981Z,38.42
2022-12-13T12:43:22.111Z,31.00
2022-12-13T12:44:37.097Z,32.15
2022-12-13T12:45:57.192Z,36.00
2022-12-13T12:47:18.050Z,36.72
2022-12-13T12:49:02.167Z,34.50
2022-12-13T12:50:18.782Z,36.70
2022-12-13T12:51:33.846Z,33.30
2022-12-13T12:52:55.201Z,30.75
2022-12-13T12:54:19.051Z,29.83
2022-12-13T12:55:33.688Z,30.52
2022-12-13T12:56:45.603Z,29.73
2022-12-13T12:58:05.076Z,28.20
2022-12-13T12:59:27.343Z,30.35
2022-12-13T13:00:25.128Z,27.13
2022-12-13T13:02:03.196Z,31.40
2022-12-13T13:03:14.515Z,29.60
2022-12-13T13:04:22.295Z,30.05
2022-12-13T13:05:45.084Z,30.10
2022-12-13T13:06:47.782Z,29.20
2022-12-13T13:07:52.813Z,29.08
2022-12-13T13:08:54.985Z,27.42
2022-12-13T13:09:54.948Z,30.77
2022-12-13T13:10:54.017Z,29.63
2022-12-13T13:12:29.377Z,30.20
2022-12-13T13:13:49.873Z,31.45
2022-12-13T13:14:46.549Z,35.97
2022-12-13T13:15:52.437Z,31.77
2022-12-13T13:16:49.205Z,31.85
2022-12-13T13:17:46.935Z,33.25
2022-12-13T13:18:52.020Z,33.67
2022-12-13T13:19:50.555Z,32.40
2022-12-13T13:21:25.891Z,32.75
2022-12-13T13:22:44.368Z,27.38
2022-12-13T13:23:43.186Z,31.80
2022-12-13T13:24:39.900Z,30.38
2022-12-13T13:26:00.378Z,29.35
2022-12-13T13:26:58.661Z,31.08
2022-12-13T13:28:22.306Z,28.05
2022-12-13T13:30:26.189Z,31.17
2022-12-13T13:31:22.886Z,30.98